Bahia De Getares — EA5074 — position and weather

sailwx.info

Track history (hours):
 
Tides and Currents Weather Stations Pressure Air Temp Water Temp Dewpoint Dewpoint Depression Visibility Wind Speed Wind Dir Waves Ship Positions

Bahia De Getares

Last reported at 2018-Apr-21 09:31 UTC. Time now 2018-Apr-21 09:47 UTC.
Position N 35°59' W 005°20'.

Length 23 m.

Type: Ship. MMSI: 225985074.

Date/timePositionNaut miles runAvg speedWind from/ knotsBaromVisibWave heightAir tempDewpointWater temp
2018-Apr-21 09:31N 35°59' W 005°20'4 9.0
2018-Apr-21 09:01N 35°54' W 005°19'0 0.9
2018-Apr-21 08:30N 35°54' W 005°19'0 0.0
2018-Apr-21 08:01N 35°54' W 005°19'0 0.0
2018-Apr-21 07:30N 35°54' W 005°19'0 0.1
2018-Apr-21 07:01N 35°54' W 005°19'1 1.5
2018-Apr-21 06:30N 35°54' W 005°18'0 0.0
2018-Apr-21 06:01N 35°54' W 005°18'0 0.0
2018-Apr-21 05:31N 35°54' W 005°18'0 0.0
2018-Apr-21 05:01N 35°54' W 005°18'0 0.0
2018-Apr-21 04:30N 35°54' W 005°18'0 0.0
2018-Apr-21 04:01N 35°54' W 005°18'0 0.0
2018-Apr-21 03:30N 35°54' W 005°18'0 0.0
2018-Apr-21 03:01N 35°54' W 005°18'0 0.0
2018-Apr-21 02:30N 35°54' W 005°18'0 0.0
2018-Apr-21 02:00N 35°54' W 005°18'0 0.0
2018-Apr-21 01:30N 35°54' W 005°18'0 0.0
2018-Apr-21 01:01N 35°54' W 005°18'4 7.0
2018-Apr-21 00:31N 35°56' W 005°21'4 8.4
2018-Apr-21 00:01N 36°01' W 005°21'  
2018-Apr-18 06:20N 36°09' W 005°26'1 0.1
2018-Apr-17 16:12N 36°08' W 005°25'2 0.0
2018-Apr-16 06:36N 36°09' W 005°26'0 0.0
2018-Apr-16 06:29N 36°09' W 005°26'7 0.3
2018-Apr-15 07:54N 36°03' W 005°22'4 9.1
2018-Apr-15 07:31N 35°59' W 005°21'5 9.5
2018-Apr-15 07:00N 35°55' W 005°20'0 0.3
2018-Apr-15 06:30N 35°55' W 005°20'0 0.2
2018-Apr-15 06:00N 35°55' W 005°20'4 8.8
2018-Apr-15 05:30N 35°59' W 005°21'710.7
2018-Apr-15 04:49N 36°06' W 005°24'3 9.4
2018-Apr-15 04:30N 36°09' W 005°25'3 0.1
2018-Apr-13 02:24N 36°05' W 005°24'0 0.0
2018-Apr-13 01:58N 36°05' W 005°24'0 0.0
2018-Apr-13 01:20N 36°05' W 005°24'  
Track history (hours):
 
Tides and Currents Weather Stations Pressure Air Temp Water Temp Dewpoint Dewpoint Depression Visibility Wind Speed Wind Dir Waves Ship Positions

Bahia De Getares

Last reported at 2018-Apr-21 09:31 UTC. Time now 2018-Apr-21 09:47 UTC.
Position N 35°59' W 005°20'.

Length 23 m.

Type: Ship. MMSI: 225985074.

Date/timePositionNaut miles runAvg speedWind from/ knotsBaromVisibWave heightAir tempDewpointWater temp
2018-Apr-21 09:31N 35°59' W 005°20'4 9.0
2018-Apr-21 09:01N 35°54' W 005°19'0 0.9
2018-Apr-21 08:30N 35°54' W 005°19'0 0.0
2018-Apr-21 08:01N 35°54' W 005°19'0 0.0
2018-Apr-21 07:30N 35°54' W 005°19'0 0.1
2018-Apr-21 07:01N 35°54' W 005°19'1 1.5
2018-Apr-21 06:30N 35°54' W 005°18'0 0.0
2018-Apr-21 06:01N 35°54' W 005°18'0 0.0
2018-Apr-21 05:31N 35°54' W 005°18'0 0.0
2018-Apr-21 05:01N 35°54' W 005°18'0 0.0
2018-Apr-21 04:30N 35°54' W 005°18'0 0.0
2018-Apr-21 04:01N 35°54' W 005°18'0 0.0
2018-Apr-21 03:30N 35°54' W 005°18'0 0.0
2018-Apr-21 03:01N 35°54' W 005°18'0 0.0
2018-Apr-21 02:30N 35°54' W 005°18'0 0.0
2018-Apr-21 02:00N 35°54' W 005°18'0 0.0
2018-Apr-21 01:30N 35°54' W 005°18'0 0.0
2018-Apr-21 01:01N 35°54' W 005°18'4 7.0
2018-Apr-21 00:31N 35°56' W 005°21'4 8.4
2018-Apr-21 00:01N 36°01' W 005°21'  
2018-Apr-18 06:20N 36°09' W 005°26'1 0.1
2018-Apr-17 16:12N 36°08' W 005°25'2 0.0
2018-Apr-16 06:36N 36°09' W 005°26'0 0.0
2018-Apr-16 06:29N 36°09' W 005°26'7 0.3
2018-Apr-15 07:54N 36°03' W 005°22'4 9.1
2018-Apr-15 07:31N 35°59' W 005°21'5 9.5
2018-Apr-15 07:00N 35°55' W 005°20'0 0.3
2018-Apr-15 06:30N 35°55' W 005°20'0 0.2
2018-Apr-15 06:00N 35°55' W 005°20'4 8.8
2018-Apr-15 05:30N 35°59' W 005°21'710.7
2018-Apr-15 04:49N 36°06' W 005°24'3 9.4
2018-Apr-15 04:30N 36°09' W 005°25'3 0.1
2018-Apr-13 02:24N 36°05' W 005°24'0 0.0
2018-Apr-13 01:58N 36°05' W 005°24'0 0.0
2018-Apr-13 01:20N 36°05' W 005°24'  

Dump ship's entire track history